createdAt,value
2018-09-22T00:00:06.589Z,0
2018-09-22T00:00:38.675Z,0
2018-09-22T00:01:11.647Z,0
2018-09-22T00:01:43.662Z,0
2018-09-22T00:02:15.751Z,0
2018-09-22T00:02:47.799Z,0
2018-09-22T00:03:19.902Z,0
2018-09-22T00:03:51.970Z,0
2018-09-22T00:04:24.030Z,0
2018-09-22T00:04:56.110Z,0
2018-09-22T00:05:28.154Z,0
2018-09-22T00:06:00.224Z,0
2018-09-22T00:06:32.246Z,0
2018-09-22T00:07:04.319Z,0
2018-09-22T00:07:36.373Z,0
2018-09-22T00:08:08.432Z,0
2018-09-22T00:08:40.468Z,0
2018-09-22T00:09:12.541Z,0
2018-09-22T00:09:44.573Z,0
2018-09-22T00:10:16.629Z,0
2018-09-22T00:10:48.673Z,0
2018-09-22T00:11:20.792Z,0
2018-09-22T00:11:52.862Z,0
2018-09-22T00:12:24.893Z,0
2018-09-22T00:12:56.973Z,0
2018-09-22T00:13:28.984Z,0
2018-09-22T00:14:01.078Z,0
2018-09-22T00:14:33.102Z,0
2018-09-22T00:15:05.191Z,0
2018-09-22T00:15:37.262Z,0
2018-09-22T00:16:09.302Z,0
2018-09-22T00:16:41.366Z,0
2018-09-22T00:17:13.417Z,0
2018-09-22T00:17:45.447Z,0
2018-09-22T00:18:17.476Z,0
2018-09-22T00:18:49.553Z,0
2018-09-22T00:19:21.567Z,0
2018-09-22T00:19:53.777Z,0
2018-09-22T00:20:25.826Z,0
2018-09-22T00:20:57.881Z,0
2018-09-22T00:21:29.930Z,0
2018-09-22T00:22:02.018Z,0
2018-09-22T00:22:34.106Z,0
2018-09-22T00:23:06.176Z,0
2018-09-22T00:23:38.233Z,0
2018-09-22T00:24:10.330Z,0
2018-09-22T00:24:42.358Z,0
2018-09-22T00:25:14.405Z,0
2018-09-22T00:25:46.489Z,0
2018-09-22T00:26:18.676Z,0
2018-09-22T00:26:50.691Z,0
2018-09-22T00:27:22.840Z,0
2018-09-22T00:27:54.849Z,0
2018-09-22T00:28:26.918Z,0
2018-09-22T00:28:58.978Z,0
2018-09-22T00:29:31.042Z,0
2018-09-22T00:30:03.112Z,0
2018-09-22T00:30:35.160Z,0
2018-09-22T00:31:07.238Z,0
2018-09-22T00:31:39.406Z,0
2018-09-22T00:32:11.395Z,0
2018-09-22T00:32:43.441Z,0
2018-09-22T00:33:15.418Z,0
2018-09-22T00:33:47.448Z,0
2018-09-22T00:34:19.536Z,0
2018-09-22T00:34:51.579Z,0
2018-09-22T00:35:23.713Z,0
2018-09-22T00:35:55.792Z,0
2018-09-22T00:36:27.838Z,0
2018-09-22T00:36:59.896Z,0
2018-09-22T00:37:32.079Z,0
2018-09-22T00:38:04.231Z,0
2018-09-22T00:38:36.343Z,0
2018-09-22T00:39:08.358Z,0
2018-09-22T00:39:40.439Z,0
2018-09-22T00:40:12.533Z,0
2018-09-22T00:40:44.673Z,0
2018-09-22T00:41:16.727Z,0
2018-09-22T00:41:48.781Z,0
2018-09-22T00:42:20.854Z,0
2018-09-22T00:42:52.904Z,0
2018-09-22T00:43:24.954Z,0
2018-09-22T00:43:56.991Z,0
2018-09-22T00:44:29.066Z,0
2018-09-22T00:45:01.111Z,0
2018-09-22T00:45:33.115Z,0
2018-09-22T00:46:05.151Z,0
2018-09-22T00:46:37.191Z,0
2018-09-22T00:47:09.225Z,0
2018-09-22T00:47:41.261Z,0
2018-09-22T00:48:13.342Z,0
2018-09-22T00:48:45.375Z,0
2018-09-22T00:49:17.425Z,0
2018-09-22T00:49:49.472Z,0
2018-09-22T00:50:21.514Z,0
2018-09-22T00:50:53.593Z,0
2018-09-22T00:51:25.624Z,0
2018-09-22T00:51:57.694Z,0
2018-09-22T00:52:29.767Z,0
2018-09-22T00:53:01.825Z,0
2018-09-22T00:53:33.818Z,0
2018-09-22T00:54:05.842Z,0
2018-09-22T00:54:37.861Z,0
2018-09-22T00:55:09.932Z,0
2018-09-22T00:55:41.953Z,0
2018-09-22T00:56:14.021Z,0
2018-09-22T00:56:46.050Z,0
2018-09-22T00:57:18.116Z,0
2018-09-22T00:57:50.165Z,0
2018-09-22T00:58:22.220Z,0
2018-09-22T00:58:54.270Z,0
2018-09-22T00:59:26.336Z,0
2018-09-22T00:59:58.439Z,0
2018-09-22T01:00:30.490Z,0
2018-09-22T01:01:02.557Z,0
2018-09-22T01:01:34.601Z,0
2018-09-22T01:02:07.311Z,0
2018-09-22T01:02:39.337Z,0
2018-09-22T01:03:11.543Z,0
2018-09-22T01:03:43.759Z,0
2018-09-22T01:04:15.898Z,0
2018-09-22T01:04:47.995Z,0
2018-09-22T01:05:20.038Z,0
2018-09-22T01:05:52.082Z,0
2018-09-22T01:06:24.229Z,0
2018-09-22T01:06:56.272Z,0
2018-09-22T01:07:28.353Z,0
2018-09-22T01:08:00.432Z,0
2018-09-22T01:08:32.508Z,0
2018-09-22T01:09:04.521Z,0
2018-09-22T01:09:36.587Z,0
2018-09-22T01:10:08.669Z,0
2018-09-22T01:10:40.752Z,0
2018-09-22T01:11:13.408Z,0
2018-09-22T01:11:45.472Z,0
2018-09-22T01:12:17.502Z,0
2018-09-22T01:12:49.573Z,0
2018-09-22T01:13:21.548Z,0
2018-09-22T01:13:53.675Z,0
2018-09-22T01:14:25.862Z,0
2018-09-22T01:14:57.872Z,0
2018-09-22T01:15:30.016Z,0
2018-09-22T01:16:02.122Z,0
2018-09-22T01:16:34.191Z,0
2018-09-22T01:17:06.250Z,0
2018-09-22T01:17:38.321Z,0
2018-09-22T01:18:10.379Z,0
2018-09-22T01:18:42.443Z,0
2018-09-22T01:19:14.491Z,0
2018-09-22T01:19:46.547Z,0
2018-09-22T01:20:18.702Z,0
2018-09-22T01:20:50.768Z,0
2018-09-22T01:21:22.873Z,0
2018-09-22T01:21:54.932Z,0
2018-09-22T01:22:27.003Z,0
2018-09-22T01:22:59.068Z,0
2018-09-22T01:23:31.165Z,0
2018-09-22T01:24:04.104Z,0
2018-09-22T01:24:36.122Z,0
2018-09-22T01:25:08.242Z,0
2018-09-22T01:25:40.303Z,0
2018-09-22T01:26:12.383Z,0
2018-09-22T01:26:44.460Z,0
2018-09-22T01:27:16.488Z,0
2018-09-22T01:27:48.500Z,0
2018-09-22T01:28:20.561Z,0
2018-09-22T01:28:52.614Z,0
2018-09-22T01:29:24.769Z,0
2018-09-22T01:29:56.807Z,0
2018-09-22T01:30:28.877Z,0
2018-09-22T01:31:00.950Z,0
2018-09-22T01:31:32.999Z,0
2018-09-22T01:32:05.118Z,0
2018-09-22T01:32:37.137Z,0
2018-09-22T01:33:09.206Z,0
2018-09-22T01:33:41.287Z,0
2018-09-22T01:34:13.404Z,0
2018-09-22T01:34:45.591Z,0
2018-09-22T01:35:17.683Z,0
2018-09-22T01:35:49.734Z,0
2018-09-22T01:36:21.802Z,0
2018-09-22T01:36:53.815Z,0
2018-09-22T01:37:25.852Z,0
2018-09-22T01:37:57.883Z,0
2018-09-22T01:38:29.943Z,0
2018-09-22T01:39:01.982Z,0
2018-09-22T01:39:34.011Z,0
2018-09-22T01:40:06.059Z,0
2018-09-22T01:40:38.128Z,0
2018-09-22T01:41:10.245Z,0
2018-09-22T01:41:42.296Z,0
2018-09-22T01:42:14.364Z,0
2018-09-22T01:42:46.376Z,0
2018-09-22T01:43:19.085Z,0
2018-09-22T01:43:51.098Z,0
2018-09-22T01:44:23.119Z,0
2018-09-22T01:44:55.198Z,0
2018-09-22T01:45:27.277Z,0
2018-09-22T01:45:59.349Z,0
2018-09-22T01:46:31.371Z,0
2018-09-22T01:47:03.405Z,0
2018-09-22T01:47:35.462Z,0
2018-09-22T01:48:07.507Z,0
2018-09-22T01:48:39.532Z,0
2018-09-22T01:49:11.606Z,0
2018-09-22T01:49:43.690Z,0
2018-09-22T01:50:15.738Z,0
2018-09-22T01:50:47.783Z,0
2018-09-22T01:51:19.902Z,0
2018-09-22T01:51:51.972Z,0
2018-09-22T01:52:24.137Z,0
2018-09-22T01:52:56.184Z,0
2018-09-22T01:53:28.231Z,0
2018-09-22T01:54:00.266Z,0
2018-09-22T01:54:32.331Z,0
2018-09-22T01:55:04.403Z,0
2018-09-22T01:55:36.445Z,0
2018-09-22T01:56:08.481Z,0
2018-09-22T01:56:40.519Z,0
2018-09-22T01:57:12.593Z,0
2018-09-22T01:57:44.701Z,0
2018-09-22T01:58:16.763Z,0
2018-09-22T01:58:48.803Z,0
2018-09-22T01:59:20.830Z,0
2018-09-22T01:59:52.890Z,0
2018-09-22T02:00:24.949Z,0
2018-09-22T02:00:57.032Z,0
2018-09-22T02:01:29.125Z,0
2018-09-22T02:02:01.184Z,0
2018-09-22T02:02:33.311Z,0
2018-09-22T02:03:05.399Z,0
2018-09-22T02:03:37.439Z,0
2018-09-22T02:04:09.491Z,0
2018-09-22T02:04:41.555Z,0
2018-09-22T02:05:13.598Z,0
2018-09-22T02:05:45.677Z,0
2018-09-22T02:06:17.723Z,0
2018-09-22T02:06:49.803Z,0
2018-09-22T02:07:21.902Z,0
2018-09-22T02:07:53.987Z,0
2018-09-22T02:08:26.059Z,0
2018-09-22T02:08:58.224Z,0
2018-09-22T02:09:30.277Z,0
2018-09-22T02:10:02.367Z,0
2018-09-22T02:10:34.486Z,0
2018-09-22T02:11:06.509Z,0
2018-09-22T02:11:38.509Z,0
2018-09-22T02:12:10.602Z,0
2018-09-22T02:12:42.634Z,0
2018-09-22T02:13:14.729Z,0
2018-09-22T02:13:46.810Z,0
2018-09-22T02:14:18.858Z,0
2018-09-22T02:14:50.899Z,0
2018-09-22T02:15:22.993Z,0
2018-09-22T02:15:55.055Z,0
2018-09-22T02:16:27.048Z,0
2018-09-22T02:16:59.072Z,0
2018-09-22T02:17:31.127Z,0
2018-09-22T02:18:03.156Z,0
2018-09-22T02:18:35.226Z,0
2018-09-22T02:19:07.314Z,0
2018-09-22T02:19:39.358Z,0
2018-09-22T02:20:11.509Z,0
2018-09-22T02:20:43.597Z,0
2018-09-22T02:21:15.665Z,0
2018-09-22T02:21:47.750Z,0
2018-09-22T02:22:19.793Z,0
2018-09-22T02:22:51.835Z,0
2018-09-22T02:23:23.895Z,0
2018-09-22T02:23:55.960Z,0
2018-09-22T02:24:28.001Z,0
2018-09-22T02:25:00.049Z,0
2018-09-22T02:25:32.129Z,0
2018-09-22T02:26:04.242Z,0
2018-09-22T02:26:36.361Z,0
2018-09-22T02:27:08.441Z,0
2018-09-22T02:27:40.505Z,0
2018-09-22T02:28:12.550Z,0
2018-09-22T02:28:44.631Z,0
2018-09-22T02:29:16.696Z,0
2018-09-22T02:29:48.744Z,0
2018-09-22T02:30:20.832Z,0
2018-09-22T02:30:52.874Z,0
2018-09-22T02:31:24.996Z,0
2018-09-22T02:31:57.078Z,0
2018-09-22T02:32:29.159Z,0
2018-09-22T02:33:01.217Z,0
2018-09-22T02:33:33.313Z,0
2018-09-22T02:34:05.361Z,0
2018-09-22T02:34:37.420Z,0
2018-09-22T02:35:09.503Z,0
2018-09-22T02:35:41.577Z,0
2018-09-22T02:36:13.662Z,0
2018-09-22T02:36:46.478Z,0
2018-09-22T02:37:18.631Z,0
2018-09-22T02:37:50.710Z,0
2018-09-22T02:38:22.774Z,0
2018-09-22T02:38:54.811Z,0
2018-09-22T02:39:26.869Z,0
2018-09-22T02:39:59.023Z,0
2018-09-22T02:40:31.150Z,0
2018-09-22T02:41:03.209Z,0
2018-09-22T02:41:35.275Z,0
2018-09-22T02:42:07.299Z,0
2018-09-22T02:42:39.418Z,0
2018-09-22T02:43:11.476Z,0
2018-09-22T02:43:43.508Z,0
2018-09-22T02:44:15.549Z,0
2018-09-22T02:44:47.624Z,0
2018-09-22T02:45:19.706Z,0
2018-09-22T02:45:51.835Z,0
2018-09-22T02:46:23.884Z,0
2018-09-22T02:46:55.958Z,0
2018-09-22T02:47:28.023Z,0
2018-09-22T02:48:00.084Z,0
2018-09-22T02:48:32.180Z,0
2018-09-22T02:49:04.257Z,0
2018-09-22T02:49:36.357Z,0
2018-09-22T02:50:08.405Z,0
2018-09-22T02:50:40.469Z,0
2018-09-22T02:51:12.581Z,0
2018-09-22T02:51:44.754Z,0
2018-09-22T02:52:16.835Z,0
2018-09-22T02:52:48.924Z,0
2018-09-22T02:53:20.974Z,0
2018-09-22T02:53:52.987Z,0
2018-09-22T02:54:25.033Z,0
2018-09-22T02:54:57.083Z,0
2018-09-22T02:55:29.173Z,0
2018-09-22T02:56:01.197Z,0
2018-09-22T02:56:33.268Z,0
2018-09-22T02:57:05.441Z,0
2018-09-22T02:57:37.460Z,0
2018-09-22T02:58:09.543Z,0
2018-09-22T02:58:41.617Z,0
2018-09-22T02:59:13.658Z,0
2018-09-22T02:59:45.721Z,0
2018-09-22T03:00:17.781Z,0
2018-09-22T03:00:49.836Z,0
2018-09-22T03:01:21.904Z,0
2018-09-22T03:01:53.978Z,0
2018-09-22T03:02:25.978Z,0
2018-09-22T03:02:58.057Z,0
2018-09-22T03:03:30.115Z,0
2018-09-22T03:04:02.150Z,0
2018-09-22T03:04:34.217Z,0
2018-09-22T03:05:06.271Z,0
2018-09-22T03:05:38.327Z,0
2018-09-22T03:06:10.356Z,0
2018-09-22T03:06:42.606Z,0
2018-09-22T03:07:14.673Z,0
2018-09-22T03:07:46.776Z,0
2018-09-22T03:08:18.865Z,0
2018-09-22T03:08:51.022Z,0
2018-09-22T03:09:23.071Z,0
2018-09-22T03:09:55.151Z,0
2018-09-22T03:10:27.205Z,0
2018-09-22T03:10:59.318Z,0
2018-09-22T03:11:31.373Z,0
2018-09-22T03:12:03.452Z,0
2018-09-22T03:12:35.529Z,0
2018-09-22T03:13:07.566Z,0
2018-09-22T03:13:39.677Z,0
2018-09-22T03:14:11.719Z,0
2018-09-22T03:14:43.792Z,0
2018-09-22T03:15:15.955Z,0
2018-09-22T03:15:47.989Z,0
2018-09-22T03:16:20.060Z,0
2018-09-22T03:16:52.112Z,0
2018-09-22T03:17:24.167Z,0
2018-09-22T03:17:56.215Z,0
2018-09-22T03:18:28.280Z,0
2018-09-22T03:19:00.327Z,0
2018-09-22T03:19:32.492Z,0
2018-09-22T03:20:04.496Z,0
2018-09-22T03:20:36.556Z,0
2018-09-22T03:21:08.658Z,0
2018-09-22T03:21:40.753Z,0
2018-09-22T03:22:12.932Z,0
2018-09-22T03:22:44.969Z,0
2018-09-22T03:23:17.053Z,0
2018-09-22T03:23:49.094Z,0
2018-09-22T03:24:21.195Z,0
2018-09-22T03:24:53.285Z,0
2018-09-22T03:25:25.401Z,0
2018-09-22T03:25:57.493Z,0
2018-09-22T03:26:29.533Z,0
2018-09-22T03:27:01.585Z,0
2018-09-22T03:27:33.640Z,0
2018-09-22T03:28:05.709Z,0
2018-09-22T03:28:37.788Z,0
2018-09-22T03:29:09.856Z,0
2018-09-22T03:29:41.912Z,0
2018-09-22T03:30:13.995Z,0
2018-09-22T03:30:46.053Z,0
2018-09-22T03:31:18.129Z,0
2018-09-22T03:31:50.214Z,0
2018-09-22T03:32:22.293Z,0
2018-09-22T03:32:54.379Z,0
2018-09-22T03:33:26.451Z,0
2018-09-22T03:33:58.692Z,0
2018-09-22T03:34:30.760Z,0
2018-09-22T03:35:02.956Z,0
2018-09-22T03:35:35.043Z,0
2018-09-22T03:36:07.105Z,0
2018-09-22T03:36:39.186Z,0
2018-09-22T03:37:11.257Z,0
2018-09-22T03:37:43.381Z,0
2018-09-22T03:38:15.460Z,0
2018-09-22T03:38:47.559Z,0
2018-09-22T03:39:19.681Z,0
2018-09-22T03:39:51.723Z,0
2018-09-22T03:40:23.777Z,0
2018-09-22T03:40:55.797Z,0
2018-09-22T03:41:27.855Z,0
2018-09-22T03:41:59.910Z,0
2018-09-22T03:42:32.011Z,0
2018-09-22T03:43:04.179Z,0
2018-09-22T03:43:36.237Z,0
2018-09-22T03:44:08.292Z,0
2018-09-22T03:44:40.369Z,0
2018-09-22T03:45:12.467Z,0
2018-09-22T03:45:44.522Z,0
2018-09-22T03:46:16.573Z,0
2018-09-22T03:46:48.656Z,0
2018-09-22T03:47:20.726Z,0
2018-09-22T03:47:52.801Z,0
2018-09-22T03:48:24.842Z,0
2018-09-22T03:48:56.917Z,0
2018-09-22T03:49:29.059Z,0
2018-09-22T03:50:01.143Z,0
2018-09-22T03:50:33.206Z,0
2018-09-22T03:51:05.259Z,0
2018-09-22T03:51:37.295Z,0
2018-09-22T03:52:09.478Z,0
2018-09-22T03:52:41.538Z,0
2018-09-22T03:53:13.630Z,0
2018-09-22T03:53:45.823Z,0
2018-09-22T03:54:17.892Z,0
2018-09-22T03:54:49.974Z,0
2018-09-22T03:55:22.013Z,0
2018-09-22T03:55:54.107Z,0
2018-09-22T03:56:26.178Z,0
2018-09-22T03:56:58.268Z,0
2018-09-22T03:57:30.353Z,0
2018-09-22T03:58:02.423Z,0
2018-09-22T03:58:34.468Z,0
2018-09-22T03:59:06.545Z,0
2018-09-22T03:59:38.596Z,0
2018-09-22T04:00:10.657Z,0
2018-09-22T04:00:42.671Z,0
2018-09-22T04:01:14.768Z,0
2018-09-22T04:01:46.846Z,0
2018-09-22T04:02:18.961Z,0
2018-09-22T04:02:51.021Z,0
2018-09-22T04:03:23.076Z,0
2018-09-22T04:03:55.139Z,0
2018-09-22T04:04:27.181Z,0
2018-09-22T04:04:59.257Z,0
2018-09-22T04:05:31.284Z,0
2018-09-22T04:06:03.371Z,0
2018-09-22T04:06:35.480Z,0
2018-09-22T04:07:07.504Z,0
2018-09-22T04:07:39.743Z,0
2018-09-22T04:08:11.897Z,0
2018-09-22T04:08:43.975Z,0
2018-09-22T04:09:16.055Z,0
2018-09-22T04:09:48.123Z,0
2018-09-22T04:10:20.181Z,0
2018-09-22T04:10:52.244Z,0
2018-09-22T04:11:24.297Z,0
2018-09-22T04:11:56.373Z,0
2018-09-22T04:12:28.545Z,0
2018-09-22T04:13:00.609Z,0
2018-09-22T04:13:32.694Z,0
2018-09-22T04:14:04.762Z,0
2018-09-22T04:14:36.941Z,0
2018-09-22T04:15:09.068Z,0
2018-09-22T04:15:41.175Z,0
2018-09-22T04:16:13.316Z,0
2018-09-22T04:16:45.393Z,0
2018-09-22T04:17:17.442Z,0
2018-09-22T04:17:49.482Z,0
2018-09-22T04:18:21.507Z,0
2018-09-22T04:18:53.575Z,0
2018-09-22T04:19:25.605Z,0
2018-09-22T04:19:57.644Z,0
2018-09-22T04:20:29.809Z,0
2018-09-22T04:21:01.845Z,0
2018-09-22T04:21:33.915Z,0
2018-09-22T04:22:05.989Z,0
2018-09-22T04:22:38.039Z,0
2018-09-22T04:23:10.124Z,0
2018-09-22T04:23:42.208Z,0
2018-09-22T04:24:14.247Z,0
2018-09-22T04:24:46.310Z,0
2018-09-22T04:25:18.361Z,0
2018-09-22T04:25:50.440Z,0
2018-09-22T04:26:22.510Z,0
2018-09-22T04:26:54.663Z,0
2018-09-22T04:27:26.799Z,0
2018-09-22T04:27:58.993Z,0
2018-09-22T04:28:31.125Z,0
2018-09-22T04:29:03.186Z,0
2018-09-22T04:29:35.202Z,0
2018-09-22T04:30:07.279Z,0
2018-09-22T04:30:39.333Z,0
2018-09-22T04:31:11.405Z,0
2018-09-22T04:31:43.448Z,0
2018-09-22T04:32:15.545Z,0
2018-09-22T04:32:47.617Z,0
2018-09-22T04:33:19.725Z,0
2018-09-22T04:33:51.865Z,0
2018-09-22T04:34:23.873Z,0
2018-09-22T04:34:55.972Z,0
2018-09-22T04:35:28.048Z,0
2018-09-22T04:36:00.114Z,0
2018-09-22T04:36:32.142Z,0
2018-09-22T04:37:04.228Z,0
2018-09-22T04:37:36.323Z,0
2018-09-22T04:38:08.376Z,0
2018-09-22T04:38:40.390Z,0
2018-09-22T04:39:12.495Z,0
2018-09-22T04:39:44.549Z,0
2018-09-22T04:40:16.597Z,0
2018-09-22T04:40:48.693Z,0
2018-09-22T04:41:20.720Z,0
2018-09-22T04:41:52.847Z,0
2018-09-22T04:42:24.880Z,0
2018-09-22T04:42:56.991Z,0
2018-09-22T04:43:29.037Z,0
2018-09-22T04:44:01.111Z,0
2018-09-22T04:44:33.248Z,0
2018-09-22T04:45:05.323Z,0
2018-09-22T04:45:37.380Z,0
2018-09-22T04:46:09.444Z,0
2018-09-22T04:46:41.500Z,0
2018-09-22T04:47:13.642Z,0
2018-09-22T04:47:45.752Z,0
2018-09-22T04:48:17.768Z,4
2018-09-22T04:48:49.797Z,4
2018-09-22T04:49:21.908Z,4
2018-09-22T04:49:53.990Z,4
2018-09-22T04:50:26.055Z,0
2018-09-22T04:50:58.100Z,0
2018-09-22T04:51:30.115Z,0
2018-09-22T04:52:02.360Z,4
2018-09-22T04:52:34.396Z,4
2018-09-22T04:53:06.453Z,4
2018-09-22T04:53:38.531Z,4
2018-09-22T04:54:10.598Z,4
2018-09-22T04:54:42.632Z,4
2018-09-22T04:55:14.675Z,8
2018-09-22T04:55:46.736Z,4
2018-09-22T04:56:18.904Z,8
2018-09-22T04:56:51.032Z,8
2018-09-22T04:57:23.095Z,8
2018-09-22T04:57:55.162Z,12
2018-09-22T04:58:27.234Z,8
2018-09-22T04:58:59.328Z,12
2018-09-22T04:59:31.393Z,12
2018-09-22T05:00:03.425Z,12
2018-09-22T05:00:35.470Z,16
2018-09-22T05:01:07.551Z,16
2018-09-22T05:01:39.626Z,16
2018-09-22T05:02:11.699Z,16
2018-09-22T05:02:43.766Z,20
2018-09-22T05:03:15.834Z,20
2018-09-22T05:03:47.905Z,24
2018-09-22T05:04:19.921Z,28
2018-09-22T05:04:52.004Z,28
2018-09-22T05:05:24.196Z,32
2018-09-22T05:05:56.250Z,36
2018-09-22T05:06:28.341Z,36
2018-09-22T05:07:00.412Z,40
2018-09-22T05:07:32.501Z,40
2018-09-22T05:08:04.570Z,48
2018-09-22T05:08:36.600Z,48
2018-09-22T05:09:08.634Z,52
2018-09-22T05:09:40.706Z,56
2018-09-22T05:10:12.781Z,60
2018-09-22T05:10:44.830Z,64
2018-09-22T05:11:16.907Z,64
2018-09-22T05:11:48.973Z,72
2018-09-22T05:12:21.088Z,76
2018-09-22T05:12:53.200Z,80
2018-09-22T05:13:25.298Z,84
2018-09-22T05:13:57.369Z,88
2018-09-22T05:14:29.421Z,92
2018-09-22T05:15:01.472Z,92
2018-09-22T05:15:33.525Z,100
2018-09-22T05:16:05.628Z,100
2018-09-22T05:16:37.652Z,108
2018-09-22T05:17:09.792Z,112
2018-09-22T05:17:41.861Z,116
2018-09-22T05:18:13.851Z,124
2018-09-22T05:18:45.937Z,132
2018-09-22T05:19:18.007Z,140
2018-09-22T05:19:50.093Z,140
2018-09-22T05:20:22.149Z,144
2018-09-22T05:20:54.216Z,152
2018-09-22T05:21:26.315Z,160
2018-09-22T05:21:58.364Z,168
2018-09-22T05:22:30.438Z,176
2018-09-22T05:23:02.476Z,180
2018-09-22T05:23:34.535Z,188
2018-09-22T05:24:06.617Z,192
2018-09-22T05:24:38.755Z,200
2018-09-22T05:25:10.757Z,204
2018-09-22T05:25:42.848Z,212
2018-09-22T05:26:14.997Z,220
2018-09-22T05:26:47.101Z,228
2018-09-22T05:27:19.111Z,232
2018-09-22T05:27:51.146Z,240
2018-09-22T05:28:23.251Z,244
2018-09-22T05:28:55.392Z,252
2018-09-22T05:29:27.460Z,264
2018-09-22T05:29:59.602Z,272
2018-09-22T05:30:31.653Z,280
2018-09-22T05:31:03.721Z,288
2018-09-22T05:31:35.827Z,292
2018-09-22T05:32:07.875Z,296
2018-09-22T05:32:39.911Z,308
2018-09-22T05:33:11.935Z,312
2018-09-22T05:33:43.963Z,324
2018-09-22T05:34:15.976Z,332
2018-09-22T05:34:48.036Z,336
2018-09-22T05:35:20.104Z,340
2018-09-22T05:35:52.149Z,344
2018-09-22T05:36:24.215Z,352
2018-09-22T05:36:56.311Z,356
2018-09-22T05:37:28.351Z,372
2018-09-22T05:38:00.402Z,384
2018-09-22T05:38:32.453Z,400
2018-09-22T05:39:04.492Z,420
2018-09-22T05:39:36.573Z,440
2018-09-22T05:40:08.665Z,456
2018-09-22T05:40:40.726Z,476
2018-09-22T05:41:12.785Z,488
2018-09-22T05:41:44.880Z,496
2018-09-22T05:42:16.943Z,504
2018-09-22T05:42:49.019Z,508
2018-09-22T05:43:21.095Z,520
2018-09-22T05:43:53.170Z,536
2018-09-22T05:44:25.252Z,556
2018-09-22T05:44:57.290Z,576
2018-09-22T05:45:29.341Z,588
2018-09-22T05:46:02.181Z,592
2018-09-22T05:46:34.257Z,588
2018-09-22T05:47:06.285Z,592
2018-09-22T05:47:38.341Z,592
2018-09-22T05:48:10.385Z,600
2018-09-22T05:48:42.472Z,612
2018-09-22T05:49:14.552Z,624
2018-09-22T05:49:46.786Z,644
2018-09-22T05:50:18.849Z,660
2018-09-22T05:50:50.906Z,672
2018-09-22T05:51:22.971Z,684
2018-09-22T05:51:55.059Z,696
2018-09-22T05:52:27.114Z,708
2018-09-22T05:52:59.277Z,728
2018-09-22T05:53:31.298Z,740
2018-09-22T05:54:03.365Z,744
2018-09-22T05:54:35.392Z,752
2018-09-22T05:55:08.197Z,772
2018-09-22T05:55:40.265Z,788
2018-09-22T05:56:12.335Z,800
2018-09-22T05:56:44.363Z,816
2018-09-22T05:57:16.434Z,824
2018-09-22T05:57:48.585Z,832
2018-09-22T05:58:20.749Z,840
2018-09-22T05:58:52.861Z,884
2018-09-22T05:59:24.914Z,960
2018-09-22T05:59:56.964Z,1056
2018-09-22T06:00:29.014Z,1172
2018-09-22T06:01:01.053Z,1304
2018-09-22T06:01:33.134Z,1436
2018-09-22T06:02:05.169Z,1552
2018-09-22T06:02:37.238Z,1628
2018-09-22T06:03:09.233Z,1660
2018-09-22T06:03:41.425Z,1652
2018-09-22T06:04:13.658Z,1652
2018-09-22T06:04:45.818Z,1664
2018-09-22T06:05:18.029Z,1696
2018-09-22T06:05:50.113Z,1744
2018-09-22T06:06:22.120Z,1748
2018-09-22T06:06:54.234Z,1780
2018-09-22T06:07:26.286Z,1820
2018-09-22T06:07:58.297Z,1836
2018-09-22T06:08:30.372Z,1840
2018-09-22T06:09:02.401Z,1844
2018-09-22T06:09:34.540Z,1748
2018-09-22T06:10:06.543Z,1716
2018-09-22T06:10:38.651Z,1840
2018-09-22T06:11:10.639Z,1948
2018-09-22T06:11:42.708Z,2016
2018-09-22T06:12:14.751Z,2052
2018-09-22T06:12:46.800Z,2100
2018-09-22T06:13:18.881Z,2168
2018-09-22T06:13:50.944Z,2208
2018-09-22T06:14:22.950Z,2252
2018-09-22T06:14:55.046Z,2268
2018-09-22T06:15:27.127Z,2188
2018-09-22T06:15:59.153Z,2116
2018-09-22T06:16:31.196Z,2288
2018-09-22T06:17:03.249Z,2364
2018-09-22T06:17:35.288Z,2388
2018-09-22T06:18:07.355Z,2084
2018-09-22T06:18:39.417Z,2404
2018-09-22T06:19:11.533Z,2392
2018-09-22T06:19:43.629Z,2388
2018-09-22T06:20:15.664Z,2388
2018-09-22T06:20:47.736Z,2436
2018-09-22T06:21:19.760Z,2404
2018-09-22T06:21:51.853Z,2208
2018-09-22T06:22:24.553Z,2188
2018-09-22T06:22:56.700Z,1840
2018-09-22T06:23:28.793Z,2428
2018-09-22T06:24:00.834Z,2080
2018-09-22T06:24:32.904Z,1780
2018-09-22T06:25:04.931Z,2332
2018-09-22T06:25:37.014Z,2280
2018-09-22T06:26:09.797Z,1680
2018-09-22T06:26:41.819Z,1944
2018-09-22T06:27:13.853Z,2192
2018-09-22T06:27:45.906Z,1996
2018-09-22T06:28:17.959Z,2216
2018-09-22T06:28:50.073Z,1752
2018-09-22T06:29:22.114Z,1864
2018-09-22T06:29:54.166Z,2236
2018-09-22T06:30:26.223Z,1440
2018-09-22T06:30:58.273Z,1388
2018-09-22T06:31:30.379Z,1924
2018-09-22T06:32:02.433Z,1812
2018-09-22T06:32:34.466Z,2232
2018-09-22T06:33:06.549Z,2640
2018-09-22T06:33:38.687Z,2160
2018-09-22T06:34:10.793Z,1488
2018-09-22T06:34:42.872Z,1620
2018-09-22T06:35:15.038Z,2144
2018-09-22T06:35:47.150Z,2652
2018-09-22T06:36:19.145Z,1468
2018-09-22T06:36:51.260Z,1568
2018-09-22T06:37:24.276Z,1452
2018-09-22T06:37:56.330Z,1428
2018-09-22T06:38:28.400Z,1684
2018-09-22T06:39:00.476Z,1756
2018-09-22T06:39:32.503Z,2544
2018-09-22T06:40:04.500Z,2200
2018-09-22T06:40:37.424Z,1816
2018-09-22T06:41:09.549Z,1880
2018-09-22T06:41:41.600Z,1836
2018-09-22T06:42:13.687Z,2112
2018-09-22T06:42:45.673Z,1656
2018-09-22T06:43:17.651Z,1512
2018-09-22T06:43:49.703Z,1824
2018-09-22T06:44:21.746Z,1668
2018-09-22T06:44:53.837Z,1476
2018-09-22T06:45:26.535Z,1328
2018-09-22T06:45:58.586Z,1248
2018-09-22T06:46:30.594Z,1292
2018-09-22T06:47:02.655Z,1272
2018-09-22T06:47:34.711Z,1236
2018-09-22T06:48:06.751Z,1268
2018-09-22T06:48:38.735Z,1432
2018-09-22T06:49:10.790Z,1516
2018-09-22T06:49:42.830Z,1432
2018-09-22T06:50:14.887Z,1356
2018-09-22T06:50:46.922Z,1384
2018-09-22T06:51:18.961Z,1448
2018-09-22T06:51:51.045Z,1700
2018-09-22T06:52:23.102Z,1912
2018-09-22T06:52:55.164Z,1572
2018-09-22T06:53:27.169Z,1564
2018-09-22T06:53:59.240Z,2900
2018-09-22T06:54:31.334Z,1720
2018-09-22T06:55:03.331Z,1776
2018-09-22T06:55:35.389Z,2712
2018-09-22T06:56:07.453Z,2680
2018-09-22T06:56:39.560Z,3216
2018-09-22T06:57:11.589Z,2836
2018-09-22T06:57:43.645Z,2772
2018-09-22T06:58:15.694Z,3256
2018-09-22T06:58:47.779Z,3160
2018-09-22T06:59:19.898Z,3692
2018-09-22T06:59:52.545Z,3752
2018-09-22T07:00:24.586Z,3692
2018-09-22T07:00:56.656Z,3552
2018-09-22T07:01:28.753Z,3288
2018-09-22T07:02:00.812Z,3800
2018-09-22T07:02:32.862Z,3824
2018-09-22T07:03:04.952Z,3040
2018-09-22T07:03:37.083Z,3752
2018-09-22T07:04:09.132Z,3368
2018-09-22T07:04:41.174Z,3480
2018-09-22T07:05:13.176Z,3832
2018-09-22T07:05:45.228Z,3596
2018-09-22T07:06:17.354Z,3080
2018-09-22T07:06:49.342Z,3544
2018-09-22T07:07:21.366Z,3140
2018-09-22T07:07:53.429Z,2196
2018-09-22T07:08:25.460Z,2532
2018-09-22T07:08:57.528Z,2320
2018-09-22T07:09:29.558Z,2176
2018-09-22T07:10:01.591Z,2504
2018-09-22T07:10:33.613Z,2388
2018-09-22T07:11:05.642Z,2380
2018-09-22T07:11:37.827Z,1944
2018-09-22T07:12:09.950Z,1808
2018-09-22T07:12:41.958Z,1832
2018-09-22T07:13:13.990Z,1868
2018-09-22T07:13:46.097Z,1748
2018-09-22T07:14:18.168Z,1728
2018-09-22T07:14:50.211Z,1844
2018-09-22T07:15:22.247Z,1796
2018-09-22T07:15:54.291Z,1800
2018-09-22T07:16:26.355Z,1796
2018-09-22T07:16:58.414Z,1828
2018-09-22T07:17:30.558Z,1808
2018-09-22T07:18:02.595Z,1812
2018-09-22T07:18:34.629Z,1784
2018-09-22T07:19:06.725Z,1812
2018-09-22T07:19:39.223Z,1836
2018-09-22T07:20:11.225Z,1816
2018-09-22T07:20:43.334Z,1848
2018-09-22T07:21:15.408Z,1856
2018-09-22T07:21:47.539Z,1868
2018-09-22T07:22:19.620Z,1908
2018-09-22T07:22:51.634Z,1924
2018-09-22T07:23:23.664Z,1924
2018-09-22T07:23:55.730Z,1872
2018-09-22T07:24:27.778Z,1872
2018-09-22T07:24:59.794Z,1884
2018-09-22T07:25:31.983Z,1900
2018-09-22T07:26:03.883Z,1904
2018-09-22T07:26:35.910Z,1904
2018-09-22T07:27:07.986Z,1916
2018-09-22T07:27:40.060Z,1940
2018-09-22T07:28:12.108Z,1944
2018-09-22T07:28:44.306Z,1968
2018-09-22T07:29:16.355Z,2012
2018-09-22T07:29:48.440Z,1948
2018-09-22T07:30:20.505Z,1924
2018-09-22T07:30:52.554Z,1872
2018-09-22T07:31:24.611Z,1828
2018-09-22T07:31:56.699Z,1812
2018-09-22T07:32:28.808Z,1808
2018-09-22T07:33:00.920Z,1840
2018-09-22T07:33:33.174Z,1876
2018-09-22T07:34:05.247Z,1900
2018-09-22T07:34:37.249Z,1916
2018-09-22T07:35:09.262Z,2008
2018-09-22T07:35:41.324Z,2552
2018-09-22T07:36:13.378Z,2824
2018-09-22T07:36:45.414Z,2876
2018-09-22T07:37:17.449Z,2800
2018-09-22T07:37:49.503Z,4532
2018-09-22T07:38:21.608Z,3608
2018-09-22T07:38:53.641Z,2452
2018-09-22T07:39:25.722Z,2372